Time;durP1;ratioP1;P1;durP2;ratioP2;P2;SDS_P1;SDS_P2;PMS_P1;PMS_P2;Temp;Humidity;BMP_temperature;BMP_pressure;BME280_temperature;BME280_humidity;BME280_pressure;Samples;Min_cycle;Max_cycle;Signal;HPM_P1;HPM_P2
2024/01/15 00:00:01;;;;;;;41.67;22.07;;;-3.10;99.90;;;;;;5056005;28;20272;-80
2024/01/15 00:02:27;;;;;;;43.03;21.93;;;-3.20;99.90;;;;;;5055259;28;20177;-78
2024/01/15 00:04:53;;;;;;;46.47;23.50;;;-3.10;99.90;;;;;;5055866;28;20536;-77
2024/01/15 00:07:18;;;;;;;42.33;23.13;;;-3.40;99.90;;;;;;5055511;28;20223;-77
2024/01/15 00:09:44;;;;;;;40.13;21.57;;;-3.30;99.90;;;;;;5054477;28;20176;-78
2024/01/15 00:12:10;;;;;;;46.40;23.90;;;-3.20;99.90;;;;;;5055861;28;20227;-76
2024/01/15 00:14:36;;;;;;;52.33;24.67;;;-3.40;99.90;;;;;;5062890;28;20230;-79
2024/01/15 00:17:01;;;;;;;52.43;25.07;;;-3.20;99.90;;;;;;5061730;28;20194;-78
2024/01/15 00:19:27;;;;;;;47.80;23.83;;;-3.60;99.90;;;;;;5059331;28;20632;-78
2024/01/15 00:21:53;;;;;;;58.53;25.67;;;-3.50;99.90;;;;;;5055680;28;20207;-79
2024/01/15 00:24:19;;;;;;;56.07;26.60;;;-3.30;99.90;;;;;;5054328;28;20298;-77
2024/01/15 00:26:45;;;;;;;50.60;24.83;;;-3.60;99.90;;;;;;5056079;28;20179;-78
2024/01/15 00:29:10;;;;;;;55.37;26.07;;;-3.20;99.90;;;;;;5070932;28;20280;-79
2024/01/15 00:31:36;;;;;;;54.50;25.07;;;-3.50;99.90;;;;;;5063371;28;20542;-80
2024/01/15 00:34:02;;;;;;;55.37;24.10;;;-3.30;99.90;;;;;;5061185;28;20705;-80
2024/01/15 00:36:28;;;;;;;50.00;24.23;;;-3.10;99.90;;;;;;5050921;28;20263;-78
2024/01/15 00:38:54;;;;;;;52.60;25.87;;;-3.20;99.90;;;;;;5036365;28;20168;-78
2024/01/15 00:41:21;;;;;;;52.13;24.20;;;-3.20;99.90;;;;;;5036342;28;20977;-77
2024/01/15 00:43:48;;;;;;;53.60;24.67;;;-3.10;99.90;;;;;;5033335;28;20673;-78
2024/01/15 00:46:15;;;;;;;46.50;24.03;;;-3.30;99.90;;;;;;5034789;28;20168;-80
2024/01/15 00:48:41;;;;;;;53.20;24.80;;;-3.40;99.90;;;;;;5035441;28;20176;-79
2024/01/15 00:51:07;;;;;;;49.87;24.60;;;-3.30;99.90;;;;;;5034800;28;20694;-79
2024/01/15 00:53:33;;;;;;;56.53;24.80;;;-3.30;99.90;;;;;;5033435;28;20184;-81
2024/01/15 00:55:59;;;;;;;52.40;24.13;;;-3.10;99.90;;;;;;5033646;28;20252;-79
2024/01/15 00:58:26;;;;;;;50.40;24.23;;;-3.10;99.90;;;;;;5033868;28;20180;-78
2024/01/15 01:00:51;;;;;;;47.23;24.53;;;-3.40;99.90;;;;;;5033860;28;20198;-78
2024/01/15 01:03:17;;;;;;;49.03;24.27;;;-3.60;99.90;;;;;;5033398;28;20211;-78
2024/01/15 01:05:44;;;;;;;53.87;24.90;;;-3.60;99.90;;;;;;5032059;28;20207;-78
2024/01/15 01:08:10;;;;;;;45.20;22.50;;;-3.70;99.90;;;;;;5052278;28;20176;-78
2024/01/15 01:10:36;;;;;;;45.10;23.33;;;-3.50;99.90;;;;;;5038478;28;20175;-80
2024/01/15 01:13:02;;;;;;;49.13;24.30;;;-3.60;99.90;;;;;;5033801;28;20212;-76
2024/01/15 01:15:28;;;;;;;43.37;21.53;;;-3.50;99.90;;;;;;5033246;28;20601;-79
2024/01/15 01:17:56;;;;;;;43.27;22.50;;;-3.40;99.90;;;;;;5031962;28;20208;-79
2024/01/15 01:20:21;;;;;;;44.13;22.90;;;-3.50;99.90;;;;;;5050288;28;20194;-80
2024/01/15 01:22:47;;;;;;;38.87;22.50;;;-3.40;99.90;;;;;;5053530;28;20527;-78
2024/01/15 01:25:13;;;;;;;40.43;21.67;;;-3.30;99.90;;;;;;5053972;28;20179;-76
2024/01/15 01:27:39;;;;;;;44.10;21.27;;;-3.30;99.90;;;;;;5053952;28;20203;-79
2024/01/15 01:30:05;;;;;;;43.90;22.27;;;-3.20;99.90;;;;;;5054767;28;20531;-78
2024/01/15 01:32:31;;;;;;;46.33;23.07;;;-3.20;99.90;;;;;;5053542;28;20185;-79
2024/01/15 01:34:57;;;;;;;40.63;21.77;;;-3.10;99.90;;;;;;5054240;28;20651;-79
2024/01/15 01:37:23;;;;;;;43.57;21.97;;;-3.30;99.90;;;;;;5053532;28;20175;-78
2024/01/15 01:39:48;;;;;;;46.93;22.93;;;-3.30;99.90;;;;;;5054000;28;20183;-76
2024/01/15 01:42:15;;;;;;;43.53;21.43;;;-3.10;99.90;;;;;;5053583;28;20199;-79
2024/01/15 01:44:41;;;;;;;42.37;21.50;;;-3.10;99.90;;;;;;5052905;28;20199;-77
2024/01/15 01:47:08;;;;;;;42.77;21.97;;;-3.00;99.90;;;;;;5053773;28;20183;-77
2024/01/15 01:49:35;;;;;;;47.80;22.20;;;-2.80;99.90;;;;;;5085766;28;20204;-78
2024/01/15 01:52:05;;;;;;;46.93;23.67;;;-3.20;99.90;;;;;;5055954;28;20172;-78
2024/01/15 01:54:32;;;;;;;40.17;22.57;;;-3.40;99.90;;;;;;5059791;28;20198;-79
2024/01/15 01:56:59;;;;;;;48.30;23.93;;;-3.20;99.90;;;;;;5061313;28;20183;-78
2024/01/15 01:59:27;;;;;;;46.63;22.97;;;-3.50;99.90;;;;;;5057402;28;20207;-79
2024/01/15 02:01:55;;;;;;;54.03;25.40;;;-3.50;99.90;;;;;;5057740;28;20172;-78
2024/01/15 02:04:23;;;;;;;51.87;24.50;;;-3.50;99.90;;;;;;5065628;28;20207;-79
2024/01/15 02:06:50;;;;;;;52.57;24.57;;;-3.40;99.90;;;;;;5057321;28;20574;-79
2024/01/15 02:09:17;;;;;;;56.43;25.00;;;-3.50;99.90;;;;;;5057864;28;20176;-80
2024/01/15 02:11:43;;;;;;;51.70;24.93;;;-3.80;99.90;;;;;;5057889;28;20219;-80
2024/01/15 02:14:10;;;;;;;50.97;25.63;;;-3.50;99.90;;;;;;5056383;28;20740;-77
2024/01/15 02:16:36;;;;;;;58.10;26.30;;;-3.30;99.90;;;;;;5056735;28;20180;-79
2024/01/15 02:19:01;;;;;;;54.37;25.87;;;-3.20;99.90;;;;;;5058892;28;20336;-76
2024/01/15 02:21:28;;;;;;;47.80;23.47;;;-3.40;99.90;;;;;;5060412;28;20179;-79
2024/01/15 02:23:54;;;;;;;54.93;25.73;;;-3.50;99.90;;;;;;5059808;28;20227;-78
2024/01/15 02:26:21;;;;;;;57.43;25.50;;;-3.50;99.90;;;;;;5055739;28;20636;-75
2024/01/15 02:28:48;;;;;;;52.67;26.03;;;-3.60;99.90;;;;;;5074359;28;20176;-80
2024/01/15 02:31:13;;;;;;;52.83;25.07;;;-3.50;99.90;;;;;;5060063;28;20545;-78
2024/01/15 02:33:39;;;;;;;51.83;24.50;;;-3.60;99.90;;;;;;5056763;28;20172;-80
2024/01/15 02:36:06;;;;;;;50.13;24.73;;;-3.50;99.90;;;;;;5056886;28;20178;-79
2024/01/15 02:38:31;;;;;;;54.10;25.27;;;-3.50;99.90;;;;;;5056549;28;20630;-79
2024/01/15 02:40:58;;;;;;;44.33;22.73;;;-3.20;99.90;;;;;;5054790;28;20177;-79
2024/01/15 02:43:24;;;;;;;45.73;22.93;;;-3.40;99.90;;;;;;5055437;28;20211;-79
2024/01/15 02:45:49;;;;;;;45.43;21.97;;;-3.00;99.90;;;;;;5055924;28;20631;-78
2024/01/15 02:48:15;;;;;;;47.77;22.03;;;-3.00;99.90;;;;;;5068864;28;20249;-79
2024/01/15 02:50:41;;;;;;;42.77;22.57;;;-3.20;99.90;;;;;;5058085;28;20172;-79
2024/01/15 02:53:07;;;;;;;46.17;22.83;;;-3.00;99.90;;;;;;5055653;28;20183;-78
2024/01/15 02:55:32;;;;;;;42.27;21.77;;;-3.20;99.90;;;;;;5060469;28;20233;-78
2024/01/15 02:57:59;;;;;;;45.77;22.00;;;-3.30;99.90;;;;;;5058219;28;20186;-79
2024/01/15 03:00:25;;;;;;;45.97;22.67;;;-3.10;99.90;;;;;;5057123;28;20177;-78
2024/01/15 03:02:51;;;;;;;45.17;22.17;;;-3.00;99.90;;;;;;5057229;28;20755;-78
2024/01/15 03:05:17;;;;;;;48.27;22.40;;;-3.00;99.90;;;;;;5055511;28;20178;-77
2024/01/15 03:07:43;;;;;;;44.00;23.00;;;-2.80;99.90;;;;;;5054933;28;20187;-79
2024/01/15 03:10:09;;;;;;;48.07;23.37;;;-2.80;99.90;;;;;;5055859;28;20175;-78
2024/01/15 03:12:35;;;;;;;43.30;23.17;;;-3.10;99.90;;;;;;5061822;28;20234;-77
2024/01/15 03:15:01;;;;;;;51.83;23.50;;;-3.20;99.90;;;;;;5057536;28;20246;-80
2024/01/15 03:17:26;;;;;;;51.40;25.00;;;-2.90;99.90;;;;;;5056434;28;20234;-81
2024/01/15 03:19:52;;;;;;;49.77;22.87;;;-3.00;99.90;;;;;;5057406;28;20164;-79
2024/01/15 03:22:18;;;;;;;44.07;23.47;;;-3.00;99.90;;;;;;5055394;28;20233;-77
2024/01/15 03:24:44;;;;;;;49.90;23.07;;;-3.10;99.90;;;;;;5055927;28;20671;-76
2024/01/15 03:27:10;;;;;;;52.33;24.53;;;-3.00;99.90;;;;;;5055643;28;20246;-78
2024/01/15 03:29:36;;;;;;;44.47;23.20;;;-2.80;99.90;;;;;;5064368;28;20191;-78
2024/01/15 03:32:01;;;;;;;43.47;22.33;;;-3.10;99.90;;;;;;5065624;28;20173;-78
2024/01/15 03:34:27;;;;;;;42.60;22.40;;;-3.00;99.90;;;;;;5069997;28;20187;-79
2024/01/15 03:36:53;;;;;;;41.47;21.23;;;-2.90;99.90;;;;;;5059199;28;20172;-77
2024/01/15 03:39:19;;;;;;;38.47;20.43;;;-3.10;99.90;;;;;;5053716;28;20184;-78
2024/01/15 03:41:44;;;;;;;37.03;19.77;;;-3.00;99.90;;;;;;5055029;28;20203;-79
2024/01/15 03:44:10;;;;;;;28.90;17.87;;;-3.10;99.90;;;;;;5056163;28;20295;-77
2024/01/15 03:46:39;;;;;;;36.20;19.60;;;-3.00;99.90;;;;;;5059351;28;20175;-79
2024/01/15 03:49:05;;;;;;;36.90;18.97;;;-3.30;99.90;;;;;;5058701;28;20187;-78
2024/01/15 03:51:30;;;;;;;33.00;18.73;;;-3.00;99.90;;;;;;5055655;28;20184;-78
2024/01/15 03:53:56;;;;;;;35.23;17.47;;;-2.90;99.90;;;;;;5056584;28;20191;-80
2024/01/15 03:56:22;;;;;;;35.60;16.90;;;-3.40;99.90;;;;;;5057238;28;20168;-79
2024/01/15 03:58:48;;;;;;;34.77;18.47;;;-3.30;99.90;;;;;;5056984;28;20638;-79
2024/01/15 04:01:14;;;;;;;37.23;19.23;;;-3.40;99.90;;;;;;5056651;28;20586;-78
2024/01/15 04:03:40;;;;;;;37.13;18.90;;;-3.00;99.90;;;;;;5056381;28;20214;-77
2024/01/15 04:06:05;;;;;;;31.83;17.23;;;-3.30;99.90;;;;;;5056769;28;20246;-78
2024/01/15 04:08:33;;;;;;;32.33;18.17;;;-3.30;99.90;;;;;;5057403;28;20180;-77
2024/01/15 04:10:58;;;;;;;38.57;19.43;;;-3.20;99.90;;;;;;5057801;28;20701;-77
2024/01/15 04:13:24;;;;;;;34.50;19.10;;;-3.20;99.90;;;;;;5061743;28;20189;-80
2024/01/15 04:15:50;;;;;;;39.97;19.87;;;-3.40;99.90;;;;;;5052969;28;20184;-77
2024/01/15 04:18:17;;;;;;;43.60;22.57;;;-3.40;99.90;;;;;;5053830;28;20722;-81
2024/01/15 04:20:43;;;;;;;46.87;22.77;;;-3.30;99.90;;;;;;5053999;28;20187;-80
2024/01/15 04:23:08;;;;;;;52.37;23.70;;;-3.40;99.90;;;;;;5053954;28;20200;-78
2024/01/15 04:25:34;;;;;;;49.57;23.63;;;-3.20;99.90;;;;;;5068994;28;20188;-78
2024/01/15 04:28:00;;;;;;;47.70;22.13;;;-3.40;99.90;;;;;;5074320;28;20618;-77
2024/01/15 04:30:26;;;;;;;46.77;22.50;;;-3.50;99.90;;;;;;5063992;28;20196;-78
2024/01/15 04:32:52;;;;;;;45.23;22.57;;;-3.40;99.90;;;;;;5058498;28;20199;-78
2024/01/15 04:35:17;;;;;;;52.27;22.47;;;-3.60;99.90;;;;;;5052660;28;20589;-78
2024/01/15 04:37:43;;;;;;;51.20;23.60;;;-3.60;99.90;;;;;;5064484;28;20244;-77
2024/01/15 04:40:09;;;;;;;47.33;23.70;;;-3.40;99.90;;;;;;5060993;28;20184;-78
2024/01/15 04:42:35;;;;;;;50.50;24.20;;;-3.30;99.90;;;;;;5054178;28;20180;-77
2024/01/15 04:45:01;;;;;;;49.93;23.33;;;-3.40;99.90;;;;;;5055286;28;20674;-79
2024/01/15 04:47:27;;;;;;;50.00;23.90;;;-3.30;99.90;;;;;;5055058;28;20512;-77
2024/01/15 04:49:52;;;;;;;51.17;22.53;;;-3.30;99.90;;;;;;5054322;28;20179;-77
2024/01/15 04:52:18;;;;;;;49.90;24.33;;;-3.20;99.90;;;;;;5052760;28;20535;-80
2024/01/15 04:54:44;;;;;;;50.37;23.43;;;-3.10;99.90;;;;;;5053012;28;20180;-79
2024/01/15 04:57:10;;;;;;;50.73;24.13;;;-3.20;99.90;;;;;;5053209;28;20176;-79
2024/01/15 04:59:35;;;;;;;42.60;21.60;;;-3.10;99.90;;;;;;5055028;28;20183;-79
2024/01/15 05:02:01;;;;;;;47.13;21.70;;;-3.10;99.90;;;;;;5056329;28;20174;-78
2024/01/15 05:04:27;;;;;;;47.93;22.60;;;-2.90;99.90;;;;;;5053263;28;20214;-80
2024/01/15 05:06:54;;;;;;;46.60;22.67;;;-3.10;99.90;;;;;;5054854;28;20626;-79
2024/01/15 05:09:19;;;;;;;47.03;22.30;;;-2.90;99.90;;;;;;5066993;28;20172;-78
2024/01/15 05:11:45;;;;;;;46.50;23.33;;;-2.90;99.90;;;;;;5054871;28;20227;-76
2024/01/15 05:14:11;;;;;;;45.70;22.43;;;-2.60;99.90;;;;;;5053517;28;20191;-76
2024/01/15 05:16:40;;;;;;;48.63;22.73;;;-3.20;99.90;;;;;;5054611;28;20267;-77
2024/01/15 05:19:07;;;;;;;50.17;24.13;;;-3.30;99.90;;;;;;5054822;28;20259;-76
2024/01/15 05:21:33;;;;;;;50.97;22.70;;;-3.10;99.90;;;;;;5054900;28;20175;-77
2024/01/15 05:23:59;;;;;;;49.93;23.50;;;-3.40;99.90;;;;;;5063707;28;20259;-78
2024/01/15 05:26:24;;;;;;;49.50;22.70;;;-3.10;99.90;;;;;;5059639;28;20184;-78
2024/01/15 05:28:50;;;;;;;46.27;22.00;;;-3.00;99.90;;;;;;5055274;28;20187;-79
2024/01/15 05:31:16;;;;;;;48.30;22.80;;;-3.10;99.90;;;;;;5060392;28;20176;-80
2024/01/15 05:33:42;;;;;;;48.33;22.77;;;-3.30;99.90;;;;;;5058207;28;20195;-80
2024/01/15 05:36:08;;;;;;;50.60;22.80;;;-3.40;99.90;;;;;;5058179;28;20262;-80
2024/01/15 05:38:33;;;;;;;47.83;22.27;;;-3.70;99.90;;;;;;5059129;28;20283;-77
2024/01/15 05:40:59;;;;;;;42.30;22.80;;;-3.60;99.90;;;;;;5059480;28;20172;-79
2024/01/15 05:43:25;;;;;;;45.63;21.27;;;-3.50;99.90;;;;;;5060851;28;20210;-79
2024/01/15 05:45:51;;;;;;;48.67;22.07;;;-3.40;99.90;;;;;;5059683;28;20167;-79
2024/01/15 05:48:16;;;;;;;47.70;22.40;;;-3.30;99.90;;;;;;5061311;28;20511;-78
2024/01/15 05:50:42;;;;;;;45.53;21.63;;;-3.10;99.90;;;;;;5068458;28;20170;-77
2024/01/15 05:53:08;;;;;;;43.00;21.23;;;-3.10;99.90;;;;;;5064646;28;20184;-79
2024/01/15 05:55:36;;;;;;;44.40;21.47;;;-3.20;99.90;;;;;;5062479;28;20188;-78
2024/01/15 05:58:01;;;;;;;47.73;22.20;;;-3.30;99.90;;;;;;5060057;28;20218;-76
2024/01/15 06:00:27;;;;;;;43.07;22.57;;;-3.20;99.90;;;;;;5063979;28;20176;-79
2024/01/15 06:02:53;;;;;;;42.87;21.30;;;-3.10;99.90;;;;;;5071324;28;20171;-78
2024/01/15 06:05:19;;;;;;;50.53;23.10;;;-3.10;99.90;;;;;;5059727;28;21044;-79
2024/01/15 06:07:44;;;;;;;43.47;21.73;;;-3.30;99.90;;;;;;5064364;28;20195;-78
2024/01/15 06:10:10;;;;;;;44.43;21.73;;;-3.10;99.90;;;;;;5059483;28;20190;-79
2024/01/15 06:12:36;;;;;;;47.07;23.50;;;-3.10;99.90;;;;;;5058101;28;20574;-77
2024/01/15 06:15:02;;;;;;;49.50;22.97;;;-3.20;99.90;;;;;;5059080;28;20242;-79
2024/01/15 06:17:27;;;;;;;41.17;21.43;;;-3.20;99.90;;;;;;5059427;28;20176;-78
2024/01/15 06:19:53;;;;;;;48.77;22.70;;;-3.30;99.90;;;;;;5059846;28;20199;-77
2024/01/15 06:22:20;;;;;;;47.47;22.80;;;-3.20;99.90;;;;;;5059031;28;20685;-78
2024/01/15 06:24:46;;;;;;;53.63;24.23;;;-3.10;99.90;;;;;;5058140;28;20222;-78
2024/01/15 06:27:12;;;;;;;47.47;22.80;;;-3.30;99.90;;;;;;5075596;28;20577;-77
2024/01/15 06:29:38;;;;;;;47.40;22.50;;;-3.20;99.90;;;;;;5065956;28;20199;-80
2024/01/15 06:32:04;;;;;;;47.70;23.23;;;-3.40;99.90;;;;;;5060171;28;20616;-79
2024/01/15 06:34:30;;;;;;;49.43;23.23;;;-3.00;99.90;;;;;;5059361;28;20237;-80
2024/01/15 06:36:56;;;;;;;50.43;24.90;;;-3.00;99.90;;;;;;5059832;28;20501;-79
2024/01/15 06:39:22;;;;;;;44.50;22.93;;;-3.30;99.90;;;;;;5059256;28;20180;-81
2024/01/15 06:41:48;;;;;;;56.87;23.87;;;-3.40;99.90;;;;;;5057904;28;20191;-78
2024/01/15 06:44:13;;;;;;;51.43;24.90;;;-3.10;99.90;;;;;;5058891;28;20292;-80
2024/01/15 06:46:43;;;;;;;56.50;22.87;;;-3.20;99.90;;;;;;5065028;28;20241;-78
2024/01/15 06:49:09;;;;;;;50.83;24.43;;;-3.30;99.90;;;;;;5067382;28;20164;-78
2024/01/15 06:51:36;;;;;;;47.53;23.10;;;-3.10;99.90;;;;;;5062467;28;20173;-78
2024/01/15 06:54:02;;;;;;;49.17;24.10;;;-3.10;99.90;;;;;;5059871;28;20203;-77
2024/01/15 06:56:27;;;;;;;51.73;24.03;;;-3.30;99.90;;;;;;5054212;28;20674;-79
2024/01/15 06:58:53;;;;;;;48.73;23.67;;;-3.10;99.90;;;;;;5054929;28;20251;-77
2024/01/15 07:01:19;;;;;;;54.87;24.60;;;-3.20;99.90;;;;;;5055738;28;20168;-78
2024/01/15 07:03:45;;;;;;;51.13;24.20;;;-3.20;99.90;;;;;;5055602;28;20261;-79
2024/01/15 07:06:12;;;;;;;57.43;25.00;;;-3.20;99.90;;;;;;5056192;28;20774;-77
2024/01/15 07:08:38;;;;;;;54.07;25.53;;;-3.00;99.90;;;;;;5059911;28;20164;-78
2024/01/15 07:11:05;;;;;;;58.33;23.27;;;-3.20;99.90;;;;;;5062372;28;20182;-78
2024/01/15 07:13:32;;;;;;;48.33;23.57;;;-3.30;99.90;;;;;;5057515;28;20175;-78
2024/01/15 07:15:57;;;;;;;52.47;25.47;;;-2.80;99.90;;;;;;5061171;28;20169;-77
2024/01/15 07:18:23;;;;;;;51.23;24.53;;;-3.00;99.90;;;;;;5065924;28;20179;-77
2024/01/15 07:20:49;;;;;;;60.47;24.67;;;-2.90;99.90;;;;;;5070241;28;20631;-78
2024/01/15 07:23:15;;;;;;;60.17;25.63;;;-2.90;99.90;;;;;;5071144;28;20199;-78
2024/01/15 07:25:41;;;;;;;55.20;24.63;;;-3.20;99.90;;;;;;5063748;28;20191;-78
2024/01/15 07:28:07;;;;;;;60.27;25.73;;;-2.90;99.90;;;;;;5063563;28;20640;-80
2024/01/15 07:30:33;;;;;;;56.37;25.47;;;-2.70;99.90;;;;;;5055054;28;20184;-78
2024/01/15 07:32:58;;;;;;;46.33;24.47;;;-2.90;99.90;;;;;;5057465;28;20263;-81
2024/01/15 07:35:24;;;;;;;58.30;25.73;;;-2.70;99.90;;;;;;5056998;28;20187;-78
2024/01/15 07:37:50;;;;;;;56.63;26.23;;;-2.80;99.90;;;;;;5054686;28;20196;-79
2024/01/15 07:40:16;;;;;;;47.97;24.00;;;-3.00;99.90;;;;;;5054652;28;20683;-79
2024/01/15 07:42:42;;;;;;;47.17;23.23;;;-2.80;99.90;;;;;;5054540;28;20703;-79
2024/01/15 07:45:10;;;;;;;50.80;25.43;;;-3.00;99.90;;;;;;5052356;28;20216;-78
2024/01/15 07:47:36;;;;;;;50.57;25.70;;;-3.10;99.90;;;;;;5055713;28;20258;-78
2024/01/15 07:50:02;;;;;;;45.00;23.40;;;-2.90;99.90;;;;;;5057054;28;20208;-80
2024/01/15 07:52:27;;;;;;;46.90;22.77;;;-3.00;99.90;;;;;;5056714;28;20267;-79
2024/01/15 07:54:53;;;;;;;43.30;21.90;;;-2.70;99.90;;;;;;5052913;28;20191;-77
2024/01/15 07:57:19;;;;;;;46.63;23.27;;;-2.90;99.90;;;;;;5054307;28;20540;-78
2024/01/15 07:59:44;;;;;;;47.43;23.57;;;-2.80;99.90;;;;;;5053234;28;20214;-79
2024/01/15 08:02:11;;;;;;;50.03;24.27;;;-2.90;99.90;;;;;;5054512;28;20171;-79
2024/01/15 08:04:39;;;;;;;50.87;24.97;;;-2.50;99.90;;;;;;5054195;28;20207;-78
2024/01/15 08:07:06;;;;;;;53.70;23.93;;;-2.30;99.90;;;;;;5054353;28;20601;-79
2024/01/15 08:09:32;;;;;;;50.73;23.93;;;-2.40;99.90;;;;;;5054072;28;20168;-78
2024/01/15 08:11:58;;;;;;;47.53;22.97;;;-2.40;99.90;;;;;;5054327;28;20331;-77
2024/01/15 08:14:24;;;;;;;48.90;23.63;;;-2.60;99.90;;;;;;5053657;28;20598;-78
2024/01/15 08:16:50;;;;;;;48.37;24.80;;;-2.60;99.90;;;;;;5054148;28;20698;-78
2024/01/15 08:19:16;;;;;;;46.37;23.13;;;-2.30;99.90;;;;;;5054252;28;20263;-80
2024/01/15 08:21:42;;;;;;;42.67;22.97;;;-2.50;99.90;;;;;;5053977;28;20176;-80
2024/01/15 08:24:08;;;;;;;55.50;25.10;;;-2.50;99.90;;;;;;5059995;28;20204;-79
2024/01/15 08:26:34;;;;;;;47.27;23.77;;;-2.10;99.90;;;;;;5067959;28;20207;-77
2024/01/15 08:29:00;;;;;;;46.70;22.83;;;-2.30;99.90;;;;;;5069086;28;20175;-79
2024/01/15 08:31:26;;;;;;;48.47;23.77;;;-2.50;99.90;;;;;;5054503;28;20169;-80
2024/01/15 08:33:51;;;;;;;45.73;24.20;;;-2.20;99.90;;;;;;5053218;28;20179;-78
2024/01/15 08:36:18;;;;;;;48.60;23.30;;;-2.00;99.90;;;;;;5054297;28;20191;-77
2024/01/15 08:38:44;;;;;;;41.13;22.03;;;-2.10;99.90;;;;;;5056093;28;20261;-78
2024/01/15 08:41:10;;;;;;;45.67;23.73;;;-2.10;99.90;;;;;;5056114;28;20256;-79
2024/01/15 08:43:36;;;;;;;45.23;23.53;;;-1.90;99.90;;;;;;5054292;28;20282;-78
2024/01/15 08:46:03;;;;;;;43.53;23.03;;;-2.10;99.90;;;;;;5055131;28;20187;-79
2024/01/15 08:48:29;;;;;;;43.70;22.17;;;-1.70;99.90;;;;;;5053335;28;20650;-76
2024/01/15 08:50:56;;;;;;;42.87;21.83;;;-1.70;99.90;;;;;;5054002;28;20222;-77
2024/01/15 08:53:22;;;;;;;44.97;24.00;;;-1.90;99.90;;;;;;5058550;28;20259;-78
2024/01/15 08:55:50;;;;;;;47.10;23.03;;;-1.80;99.90;;;;;;5052939;28;20184;-78
2024/01/15 08:58:15;;;;;;;43.03;22.80;;;-2.00;99.90;;;;;;5054397;28;20184;-77
2024/01/15 09:00:41;;;;;;;42.07;20.53;;;-2.00;99.90;;;;;;5057422;28;20263;-78
2024/01/15 09:03:10;;;;;;;45.23;21.33;;;-2.20;99.90;;;;;;5055572;28;20184;-77
2024/01/15 09:05:36;;;;;;;40.80;21.13;;;-1.90;99.90;;;;;;5053578;28;20188;-77
2024/01/15 09:08:02;;;;;;;39.97;21.63;;;-1.80;99.90;;;;;;5052830;28;20543;-77
2024/01/15 09:10:27;;;;;;;47.93;23.03;;;-1.70;99.90;;;;;;5053696;28;20176;-77
2024/01/15 09:12:53;;;;;;;39.20;21.83;;;-1.70;99.90;;;;;;5053262;28;20208;-78
2024/01/15 09:15:19;;;;;;;44.37;19.97;;;-1.50;99.90;;;;;;5054218;28;20170;-80
2024/01/15 09:17:46;;;;;;;46.73;22.27;;;-1.30;99.90;;;;;;5053238;28;20270;-79
2024/01/15 09:20:12;;;;;;;43.07;22.40;;;-1.10;99.90;;;;;;5053145;28;20189;-77
2024/01/15 09:22:41;;;;;;;44.83;24.57;;;-0.90;99.90;;;;;;5053062;28;20176;-76
2024/01/15 09:25:09;;;;;;;47.37;24.03;;;-0.90;99.90;;;;;;5054494;28;20725;-77
2024/01/15 09:27:35;;;;;;;45.03;23.47;;;-0.80;99.90;;;;;;5053704;28;20176;-76
2024/01/15 09:30:02;;;;;;;41.17;22.07;;;-0.70;99.90;;;;;;5055647;28;20204;-79
2024/01/15 09:32:28;;;;;;;38.60;21.70;;;-0.80;99.90;;;;;;5058597;28;20177;-78
2024/01/15 09:34:54;;;;;;;36.80;19.37;;;-0.50;99.90;;;;;;5067812;28;20532;-79
2024/01/15 09:37:19;;;;;;;28.03;15.73;;;-0.40;99.90;;;;;;5065154;28;20173;-77
2024/01/15 09:39:46;;;;;;;32.13;17.53;;;-0.30;99.90;;;;;;5044687;28;20185;-79
2024/01/15 09:42:12;;;;;;;31.37;17.33;;;-0.40;99.90;;;;;;5037825;28;20667;-77
2024/01/15 09:44:38;;;;;;;32.50;18.00;;;-0.10;99.90;;;;;;5038351;28;20211;-79
2024/01/15 09:47:05;;;;;;;31.73;17.60;;;-0.20;99.90;;;;;;5035764;28;20185;-79
2024/01/15 09:49:30;;;;;;;30.77;17.63;;;-0.20;99.90;;;;;;5032686;28;20643;-79
2024/01/15 09:51:59;;;;;;;30.87;16.17;;;-0.10;99.90;;;;;;5032504;28;20221;-78
2024/01/15 09:54:25;;;;;;;29.00;16.23;;;-0.10;99.90;;;;;;5033332;28;20177;-79
2024/01/15 09:56:51;;;;;;;29.10;15.03;;;0.30;99.90;;;;;;5035447;28;20174;-76
2024/01/15 09:59:18;;;;;;;30.90;16.00;;;0.40;99.90;;;;;;5038702;28;20320;-80
2024/01/15 10:01:48;;;;;;;27.47;16.20;;;0.40;99.90;;;;;;5035504;28;20179;-78
2024/01/15 10:04:14;;;;;;;27.33;14.90;;;0.40;99.90;;;;;;5035414;28;20203;-76
2024/01/15 10:06:47;;;;;;;24.77;14.17;;;0.30;99.90;;;;;;5038966;28;20194;-79
2024/01/15 10:09:16;;;;;;;19.20;11.87;;;0.60;99.90;;;;;;5044679;28;20182;-78
2024/01/15 10:11:44;;;;;;;19.07;11.33;;;0.70;99.90;;;;;;5042133;28;20692;-76
2024/01/15 10:14:13;;;;;;;18.77;11.20;;;0.80;99.90;;;;;;5043876;28;20214;-75
2024/01/15 10:16:42;;;;;;;15.67;9.37;;;1.10;99.90;;;;;;5046116;28;20178;-76
2024/01/15 10:19:08;;;;;;;16.03;9.10;;;1.00;99.90;;;;;;5037184;28;20174;-78
2024/01/15 10:21:35;;;;;;;12.10;8.63;;;1.30;99.90;;;;;;5035478;28;20179;-77
2024/01/15 10:24:02;;;;;;;14.67;9.67;;;1.30;99.90;;;;;;5037157;28;20225;-77
2024/01/15 10:26:28;;;;;;;16.77;9.60;;;1.40;99.90;;;;;;5051597;28;20159;-78
2024/01/15 10:28:54;;;;;;;14.57;9.23;;;1.20;99.90;;;;;;5043947;28;20168;-78
2024/01/15 10:31:21;;;;;;;16.37;9.37;;;1.50;99.90;;;;;;5039889;28;20539;-77
2024/01/15 10:33:48;;;;;;;15.47;8.87;;;1.60;99.90;;;;;;5036022;28;20183;-78
2024/01/15 10:36:16;;;;;;;14.67;9.83;;;1.80;99.90;;;;;;5035694;28;20204;-79
2024/01/15 10:38:45;;;;;;;14.73;9.17;;;1.80;99.90;;;;;;5036250;28;20169;-77
2024/01/15 10:41:12;;;;;;;14.97;8.90;;;1.80;99.90;;;;;;5036487;28;20571;-76
2024/01/15 10:43:40;;;;;;;14.73;8.03;;;1.80;99.90;;;;;;5036466;28;20720;-77
2024/01/15 10:46:07;;;;;;;10.57;8.00;;;1.90;99.90;;;;;;5035817;28;20168;-77
2024/01/15 10:48:35;;;;;;;11.50;8.73;;;0.40;99.90;;;;;;5036291;28;20173;-78
2024/01/15 10:51:03;;;;;;;12.83;8.73;;;2.10;99.90;;;;;;5035730;28;20193;-80
2024/01/15 10:53:32;;;;;;;13.80;9.23;;;2.10;99.90;;;;;;5036048;28;20221;-77
2024/01/15 10:55:59;;;;;;;11.00;8.03;;;2.00;99.90;;;;;;5035989;28;20545;-77
2024/01/15 10:58:28;;;;;;;12.80;8.47;;;2.10;99.90;;;;;;5035675;28;20642;-79
2024/01/15 11:00:55;;;;;;;13.77;9.03;;;2.20;99.90;;;;;;5037038;28;20537;-77
2024/01/15 11:03:21;;;;;;;13.70;8.77;;;2.10;99.90;;;;;;5042241;28;20248;-77
2024/01/15 11:05:48;;;;;;;17.20;9.20;;;2.40;99.90;;;;;;5036668;28;20173;-77
2024/01/15 11:08:18;;;;;;;14.83;8.57;;;1.30;99.90;;;;;;5035458;28;20170;-80
2024/01/15 11:10:49;;;;;;;13.63;8.23;;;2.40;99.90;;;;;;5035086;28;20510;-78
2024/01/15 11:13:22;;;;;;;11.37;8.17;;;2.40;99.90;;;;;;5034975;28;20693;-80
2024/01/15 11:15:58;;;;;;;13.70;8.80;;;2.50;99.90;;;;;;5034879;28;20549;-78
2024/01/15 11:18:24;;;;;;;14.17;9.10;;;2.60;99.90;;;;;;5035199;28;20724;-78
2024/01/15 11:21:13;;;;;;;13.40;8.50;;;2.60;99.90;;;;;;5035669;28;20179;-80
2024/01/15 11:23:49;;;;;;;12.47;8.17;;;2.70;99.90;;;;;;5034322;28;20208;-79
2024/01/15 11:26:38;;;;;;;13.83;8.67;;;2.70;99.90;;;;;;5034785;28;20639;-78
2024/01/15 11:29:10;;;;;;;13.50;7.93;;;2.70;99.90;;;;;;5034584;28;20583;-76
2024/01/15 11:31:39;;;;;;;14.03;8.77;;;2.60;99.90;;;;;;5037236;28;20163;-78
2024/01/15 11:34:09;;;;;;;15.43;8.73;;;2.90;99.90;;;;;;5035584;28;20176;-78
2024/01/15 11:36:53;;;;;;;11.10;7.97;;;2.80;99.90;;;;;;5035552;28;20173;-78
2024/01/15 11:39:42;;;;;;;11.27;8.00;;;2.90;99.90;;;;;;5035302;28;20525;-76
2024/01/15 11:42:09;;;;;;;10.80;7.80;;;3.10;99.90;;;;;;5036592;28;20176;-77
2024/01/15 11:44:36;;;;;;;12.43;7.57;;;3.10;99.90;;;;;;5044851;28;20220;-76
2024/01/15 11:47:07;;;;;;;9.53;6.87;;;3.10;99.90;;;;;;5043968;28;20274;-77
2024/01/15 11:50:02;;;;;;;9.13;7.40;;;3.10;99.90;;;;;;5035203;28;20171;-78
2024/01/15 11:52:38;;;;;;;10.67;7.67;;;3.30;99.90;;;;;;5033747;28;20207;-75
2024/01/15 11:55:30;;;;;;;9.90;7.20;;;3.30;99.90;;;;;;5034160;28;20702;-80
2024/01/15 11:57:59;;;;;;;12.27;7.03;;;3.30;99.90;;;;;;5033722;28;20183;-79
2024/01/15 12:00:25;;;;;;;11.60;7.47;;;3.20;99.90;;;;;;5034384;28;20722;-78
2024/01/15 12:02:51;;;;;;;12.27;7.83;;;3.40;99.90;;;;;;5033153;28;20255;-78
2024/01/15 12:05:18;;;;;;;12.97;7.90;;;3.30;99.90;;;;;;5035125;28;20204;-79
2024/01/15 12:07:48;;;;;;;10.23;7.63;;;3.30;99.90;;;;;;5033364;28;20174;-79
2024/01/15 12:10:19;;;;;;;14.73;8.23;;;3.30;99.90;;;;;;5034324;28;20601;-77
2024/01/15 12:13:07;;;;;;;10.23;7.30;;;3.50;99.90;;;;;;5032459;28;20221;-77
2024/01/15 12:15:33;;;;;;;11.50;7.70;;;3.70;99.90;;;;;;5034350;28;20169;-77
2024/01/15 12:18:02;;;;;;;12.93;8.17;;;3.50;99.90;;;;;;5034439;28;20168;-75
2024/01/15 12:20:29;;;;;;;9.87;7.50;;;3.50;99.90;;;;;;5034114;28;20200;-77
2024/01/15 12:22:55;;;;;;;15.57;7.43;;;3.50;99.90;;;;;;5036611;28;20177;-78
2024/01/15 12:25:22;;;;;;;11.83;8.27;;;3.70;99.90;;;;;;5034568;28;20627;-77
2024/01/15 12:27:48;;;;;;;11.80;8.00;;;3.60;99.90;;;;;;5042514;28;20169;-77